Terminal Aerodrome Forecast
Issued by NWS

Home | Current Version | Previous Version | Text Only | Print | Product List | Glossary On
Versions: 1 2 3 4 5 6 7 8 9 10 11 12 13 14 15 16 17 18 19
000
FTUS41 KALY 161120
TAFPSF
TAF
KPSF 161120Z 1612/1712 25006KT P6SM SCT250
     FM162300 25004KT P6SM BKN250
     FM170200 VRB02KT P6SM BKN150
     FM170600 00000KT P6SM SCT080 BKN100
     FM170900 00000KT P6SM BKN050 OVC080=

USA.gov is the U.S. government's official web portal to all federal, state and local government web resources and services.